Flight Track Log - Related Links

Times and Time Zones

All times are in EDT time to prevent confusion due to time zone crossing. See the THU850 flight status page for this flight to view local times or setup timezone preferences in your user account.

Time Position Orientation Groundspeed Altitude Reporting Facility
EDT Latitude Longitude Course Direction KTS MPH feet Rate Location/Type
Tue 10:55:26 AM 48.7167 -93.2833 90° East 230 265 8,000  Level Winnipeg Center
Tue 10:56:26 AM 48.7167 -93.1833 90° East 240 276 9,800 1,600 Climbing Winnipeg Center
Tue 10:57:26 AM 48.7000 -93.0833 104° East 240 276 11,200 1,450 Climbing Winnipeg Center
Tue 10:58:26 AM 48.7000 -92.9833 90° East 250 288 12,700 1,350 Climbing Winnipeg Center
Tue 10:59:26 AM 48.6833 -92.8833 104° East 250 288 13,900 1,100 Climbing Winnipeg Center
Tue 11:00:26 AM 48.6833 -92.7667 90° East 260 299 14,900 950 Climbing Winnipeg Center
Tue 11:01:26 AM 48.6833 -92.6667 90° East 270 311 15,800 850 Climbing Winnipeg Center
Tue 11:02:26 AM 48.6667 -92.5333 101° East 270 311 16,600 850 Climbing Winnipeg Center
Tue 11:03:26 AM 48.6500 -92.4333 104° East 270 311 17,500 750 Climbing Winnipeg Center
Tue 11:04:26 AM 48.6500 -92.3167 90° East 280 322 18,100 700 Climbing Winnipeg Center
Tue 11:05:26 AM 48.6333 -92.1833 101° East 290 334 18,900 450 Climbing Winnipeg Center
Tue 11:06:26 AM 48.6167 -92.0833 104° East 300 345 19,000 50 Climbing Winnipeg Center
Tue 11:07:26 AM 48.6167 -91.9333 90° East 310 357 19,000  Level Winnipeg Center
Tue 11:08:26 AM 48.6000 -91.8000 101° East 320 368 19,000  Level Winnipeg Center
Tue 11:09:26 AM 48.5833 -91.6500 99° East 320 368 19,000 -50 Level Winnipeg Center
Tue 11:10:26 AM 48.5833 -91.5333 90° East 330 380 18,900 50 Descending Winnipeg Center
Tue 11:11:26 AM 48.5667 -91.3833 99° East 320 368 19,100 50 Climbing Winnipeg Center
Tue 11:12:26 AM 48.5500 -91.2500 101° East 320 368 19,000 -50 Descending Winnipeg Center
Tue 11:13:26 AM 48.5333 -91.1333 102° East 330 380 19,000  Level Winnipeg Center
Tue 11:14:26 AM 48.5167 -90.9833 99° East 330 380 19,000  Level Winnipeg Center
Tue 11:15:26 AM 48.5000 -90.8500 101° East 320 368 19,000  Level Winnipeg Center
Tue 11:16:26 AM 48.5000 -90.7333 90° East 320 368 19,000  Level Winnipeg Center
Tue 11:17:26 AM 48.4833 -90.5833 99° East 320 368 19,000  Level Winnipeg Center
Tue 11:18:26 AM 48.4667 -90.4500 101° East 320 368 19,000  Level Winnipeg Center
Tue 11:19:26 AM 48.4667 -90.3333 90° East 320 368 19,000 -600 Level Winnipeg Center
Tue 11:20:26 AM 48.4333 -90.1833 108° East 330 380 17,800 -1,550 Descending Winnipeg Center
Tue 11:21:26 AM 48.3833 -90.0333 117° Southeast 350 403 15,900 -2,800 Descending Winnipeg Center
Tue 11:22:26 AM 48.3667 -89.8833 99° East 340 391 12,200 -3,800 Descending Winnipeg Center
Tue 11:23:26 AM 48.3500 -89.7667 102° East 320 368 8,300 -3,500 Descending Winnipeg Center
Tue 11:24:26 AM 48.3333 -89.6500 102° East 300 345 5,200 -2,550 Descending Winnipeg Center
Tue 11:25:26 AM 48.3167 -89.5500 104° East 260 299 3,200 -1,050 Descending Winnipeg Center
Tue 11:26:26 AM 48.3167 -89.4667 90° East 190 219 3,100 -600 Descending Winnipeg Center
Tue 11:27:26 AM 48.3333 -89.3833 73° East 160 184 2,000 -850 Descending Winnipeg Center
Tue 11:28:26 AM 48.3500 -89.3333 63° Northeast 140 161 1,400 -650 Descending Winnipeg Center
Tue 11:29:26 AM 48.3667 -89.2833 63° Northeast 110 127 700 -700 Descending Winnipeg Center

Login

Don't have an account? Register now (free) for customized features, flight alerts, and more!